Language: 


Des rapports , des résumés tant et plus, au choix de chacun....


Données statistiques de la station
Quotidien Rapport Mars 7, 2017 Unités:  Anglais    Métrique   les deux
« Précédent Jour
Suivant Jour »
Quotidien Hebdomadaire Mensuel Annuel Actuel
  Haut: Bas: Moyen:
Température: 54.1 °F 36.7 °F 44.1 °F
Pt de rosée: 45.9 °F 34.3 °F 39.4 °F
Humidité: 98 % 60 % 85 %
Vitesse du vent: 10.3 mph 0 mph 3 mph
Rafales: 13 mph - -
Vent:- - West
Pression: 30.1 in 29.8 in -
Précipitation: 0 in    
Historical Graphs
 
 
Données statistiques pour Mars 7, 2017
Heure Température Point de rosée Pression Vent Vitesse du vent Refales Humidité Pluie (taux horaire)
00:00 43.3 °F 40.6 °F 29.8 in Calm     90 % 0 in
00:05 43.3 °F 40.6 °F 29.8 in Calm     90 % 0 in
00:06 43.3 °F 40.6 °F 29.8 in Calm     90 % 0 in
00:11 43.2 °F 40.5 °F 29.8 in WSW 2 mph 2.5 mph 90 % 0 in
00:16 43 °F 40.5 °F 29.8 in Calm   2.5 mph 91 % 0 in
00:20 42.8 °F 40.3 °F 29.8 in Calm   2 mph 91 % 0 in
00:22 42.8 °F 40.3 °F 29.8 in Calm     91 % 0 in
00:27 42.8 °F 40.3 °F 29.8 in Calm     91 % 0 in
00:32 42.6 °F 40.1 °F 29.8 in Calm     91 % 0 in
00:37 42.6 °F 40.5 °F 29.8 in Calm     92 % 0 in
00:42 42.4 °F 40.3 °F 29.9 in Calm     92 % 0 in
00:47 42.4 °F 40.5 °F 29.9 in Calm     93 % 0 in
00:52 42.3 °F 40.5 °F 29.9 in Calm     93 % 0 in
00:57 42.3 °F 40.5 °F 29.9 in WSW 2.5 mph 3.6 mph 93 % 0 in
01:02 42.3 °F 40.5 °F 29.9 in WSW 3.6 mph 4.3 mph 93 % 0 in
01:07 42.3 °F 40.5 °F 29.8 in WSW 4.7 mph 4.9 mph 93 % 0 in
01:12 42.3 °F 40.5 °F 29.8 in WSW 4.9 mph 4.9 mph 93 % 0 in
01:17 42.4 °F 40.5 °F 29.8 in West 4.3 mph 5.8 mph 93 % 0 in
01:22 42.4 °F 40.5 °F 29.9 in West 4.3 mph 5.8 mph 93 % 0 in
01:25 42.4 °F 40.5 °F 29.9 in WSW 3.4 mph 5.4 mph 93 % 0 in
01:29 42.4 °F 40.5 °F 29.9 in West 3.4 mph 4.9 mph 93 % 0 in
01:30 42.4 °F 40.5 °F 29.9 in West 4.7 mph 5.4 mph 93 % 0 in
01:31 42.4 °F 40.5 °F 29.9 in West 5.8 mph 5.8 mph 93 % 0 in
01:36 42.4 °F 40.8 °F 29.9 in West 4.3 mph 5.8 mph 94 % 0 in
01:41 42.4 °F 40.8 °F 29.9 in Calm   5.6 mph 94 % 0 in
01:46 42.4 °F 40.8 °F 29.9 in WSW 3.6 mph 5.8 mph 94 % 0 in
01:51 42.4 °F 40.8 °F 29.9 in West 2.5 mph 5.8 mph 94 % 0 in
01:52 42.4 °F 40.8 °F 29.9 in West 3.8 mph 5.8 mph 94 % 0 in
01:57 42.4 °F 40.5 °F 29.9 in West 4.3 mph 4.9 mph 93 % 0 in
02:01 42.4 °F 40.5 °F 29.9 in West 2.7 mph 4.9 mph 93 % 0 in
02:02 42.3 °F 40.5 °F 29.9 in West 2.9 mph 4.9 mph 93 % 0 in
02:07 42.3 °F 40.5 °F 29.9 in West 3.6 mph 5.8 mph 93 % 0 in
02:12 42.3 °F 40.5 °F 29.9 in West 2.9 mph 5.8 mph 93 % 0 in
02:17 42.3 °F 40.5 °F 29.9 in WSW 3.8 mph 5.4 mph 93 % 0 in
02:22 42.3 °F 40.5 °F 29.9 in West 3.8 mph 5.6 mph 93 % 0 in
02:27 42.3 °F 40.5 °F 29.9 in West 2.9 mph 5.6 mph 93 % 0 in
02:32 42.3 °F 40.5 °F 29.9 in West 5.6 mph 5.6 mph 93 % 0 in
02:37 42.3 °F 40.5 °F 29.8 in West 2.9 mph 5.8 mph 93 % 0 in
02:42 42.3 °F 40.5 °F 29.8 in West 7.2 mph 8.1 mph 93 % 0 in
02:47 42.3 °F 40.5 °F 29.8 in WNW 5.6 mph 8.1 mph 93 % 0 in
02:52 42.3 °F 40.5 °F 29.9 in West 1.3 mph 7.6 mph 93 % 0 in
02:57 42.1 °F 40.3 °F 29.9 in West 3.1 mph 7.4 mph 93 % 0 in
03:02 42.1 °F 40.3 °F 29.9 in WSW 4.9 mph 7.6 mph 93 % 0 in
03:07 42.1 °F 40.3 °F 29.8 in West 6.5 mph 6.5 mph 93 % 0 in
03:12 41.9 °F 39.9 °F 29.8 in West 4.9 mph 7.2 mph 93 % 0 in
03:17 41.7 °F 39.7 °F 29.8 in West 4 mph 7.2 mph 93 % 0 in
03:22 41.5 °F 39.7 °F 29.9 in West 4.3 mph 6 mph 93 % 0 in
03:27 41 °F 39 °F 29.9 in WSW 6.3 mph 6.3 mph 93 % 0 in
03:32 41 °F 39 °F 29.9 in WNW 6 mph 6.3 mph 93 % 0 in
03:37 40.8 °F 39 °F 29.9 in West 3.6 mph 6.5 mph 93 % 0 in
03:42 40.5 °F 38.8 °F 29.9 in WSW 4 mph 6.5 mph 94 % 0 in
03:47 40.3 °F 38.5 °F 29.9 in West 4.5 mph 5.8 mph 93 % 0 in
03:52 40.1 °F 38.5 °F 29.9 in WSW 3.1 mph 5.6 mph 94 % 0 in
03:57 39.7 °F 37.9 °F 29.9 in WSW 3.8 mph 7.2 mph 93 % 0 in
04:02 39.6 °F 37.9 °F 29.9 in WSW 6.5 mph 7.2 mph 94 % 0 in
04:07 39.6 °F 37.9 °F 29.9 in West 5.4 mph 6.9 mph 94 % 0 in
04:12 39.6 °F 37.9 °F 29.9 in West 6.3 mph 7.8 mph 94 % 0 in
04:17 39.6 °F 38.3 °F 29.9 in West 6.3 mph 7.8 mph 95 % 0 in
04:22 39.4 °F 38.1 °F 29.9 in West 6.5 mph 7.6 mph 95 % 0 in
04:27 39.4 °F 38.5 °F 29.9 in WSW 5.4 mph 7.6 mph 96 % 0 in
04:32 39.2 °F 38.1 °F 29.9 in WSW 4.3 mph 7.2 mph 96 % 0 in
04:37 39 °F 37.9 °F 29.9 in WSW 5.8 mph 6.5 mph 96 % 0 in
04:43 39 °F 37.9 °F 29.9 in West 4 mph 6.5 mph 96 % 0 in
04:48 38.7 °F 37.8 °F 29.9 in West 3.6 mph 6.3 mph 96 % 0 in
04:53 38.5 °F 37.6 °F 29.9 in West 2.9 mph 4.7 mph 96 % 0 in
04:58 38.5 °F 37.2 °F 29.9 in Calm   4.3 mph 96 % 0 in
05:03 38.5 °F 37.2 °F 29.9 in West 3.6 mph 4.3 mph 96 % 0 in
05:08 38.5 °F 37.6 °F 29.9 in West 3.6 mph 5.4 mph 97 % 0 in
05:13 38.5 °F 37.6 °F 29.9 in West 3.8 mph 5.8 mph 97 % 0 in
05:18 38.1 °F 37.4 °F 29.9 in WSW 4.5 mph 5.8 mph 97 % 0 in
05:23 38.1 °F 37.4 °F 29.9 in West 5.4 mph 6.5 mph 97 % 0 in
05:28 38.1 °F 37.4 °F 29.9 in West 4.9 mph 6.5 mph 97 % 0 in
05:33 38.1 °F 37.4 °F 29.9 in West 4.9 mph 7.4 mph 97 % 0 in
05:38 38.1 °F 37.4 °F 29.9 in WSW 1.1 mph 7.4 mph 97 % 0 in
05:43 37.9 °F 37.2 °F 29.9 in West 4 mph 5.8 mph 97 % 0 in
05:48 37.9 °F 37.2 °F 29.9 in Calm   5.4 mph 97 % 0 in
05:53 37.9 °F 37.2 °F 29.9 in Calm   4 mph 97 % 0 in
06:03 37.9 °F 37.6 °F 29.9 in Calm   3.8 mph 98 % 0 in
06:08 37.8 °F 37.2 °F 29.9 in WSW 2.5 mph 3.1 mph 98 % 0 in
06:13 37.6 °F 36.9 °F 29.9 in West 2.9 mph 3.1 mph 97 % 0 in
06:18 37.8 °F 37.2 °F 29.9 in WNW 3.1 mph 3.8 mph 98 % 0 in
06:23 37.9 °F 37.6 °F 29.9 in West 3.8 mph 5.6 mph 98 % 0 in
06:28 38.5 °F 37.8 °F 29.9 in West 4.7 mph 5.6 mph 98 % 0 in
06:33 38.5 °F 37.8 °F 29.9 in West 6 mph 6 mph 98 % 0 in
06:38 38.5 °F 37.8 °F 29.9 in WSW 4.3 mph 6.5 mph 98 % 0 in
06:43 38.5 °F 37.8 °F 29.9 in WSW 7.4 mph 8.9 mph 98 % 0 in
06:48 38.5 °F 37.8 °F 29.9 in Calm   8.9 mph 98 % 0 in
06:53 38.1 °F 37.8 °F 29.9 in Calm   7.6 mph 98 % 0 in
06:58 37.8 °F 37.2 °F 29.9 in West 4 mph 5.4 mph 98 % 0 in
07:03 37.6 °F 37 °F 29.9 in West 3.1 mph 5.4 mph 98 % 0 in
07:08 37.8 °F 37.2 °F 29.9 in West 4 mph 5.8 mph 98 % 0 in
07:13 37.6 °F 37 °F 29.9 in West 3.8 mph 5.8 mph 98 % 0 in
07:18 37.6 °F 37 °F 29.9 in West 3.4 mph 4.3 mph 98 % 0 in
07:23 37.2 °F 36.9 °F 29.9 in WSW 3.6 mph 4.3 mph 98 % 0 in
07:28 36.9 °F 36.3 °F 29.9 in WSW 2.7 mph 4.3 mph 98 % 0 in
07:33 36.9 °F 36.3 °F 29.9 in WSW 3.6 mph 4.3 mph 98 % 0 in
07:38 36.9 °F 36.3 °F 29.9 in WSW 4.3 mph 4.7 mph 98 % 0 in
07:43 36.7 °F 36.1 °F 29.9 in WSW 5.6 mph 5.6 mph 98 % 0 in
07:48 36.7 °F 36.1 °F 29.9 in West 4 mph 5.6 mph 98 % 0 in
07:53 36.9 °F 36.3 °F 29.9 in West 4.9 mph 6.3 mph 98 % 0 in
07:58 36.9 °F 36.3 °F 29.9 in West 6.5 mph 7.4 mph 98 % 0 in
08:03 37.2 °F 36.9 °F 29.9 in WSW 5.8 mph 7.6 mph 98 % 0 in
08:08 37.6 °F 37 °F 30 in WSW 5.4 mph 7.6 mph 98 % 0 in
08:13 37.6 °F 37 °F 30 in WSW 3.8 mph 6.5 mph 98 % 0 in
08:18 37.9 °F 37.6 °F 30 in WSW 3.8 mph 6.5 mph 98 % 0 in
08:23 38.5 °F 37.8 °F 30 in WSW 5.4 mph 5.4 mph 98 % 0 in
08:28 38.7 °F 38.1 °F 30 in West 3.6 mph 6.3 mph 98 % 0 in
08:33 39 °F 38.5 °F 30 in Calm   6.3 mph 98 % 0 in
08:38 39.6 °F 39 °F 30 in Calm   4 mph 98 % 0 in
08:43 40.1 °F 39.6 °F 30 in WSW 5.8 mph 5.8 mph 98 % 0 in
08:48 40.5 °F 39.9 °F 30 in WSW 4.7 mph 6 mph 98 % 0 in
08:53 40.8 °F 40.3 °F 30 in WSW 3.1 mph 6 mph 98 % 0 in
08:58 41.4 °F 40.8 °F 30 in West 4.3 mph 6 mph 98 % 0 in
08:59 41.5 °F 41 °F 30 in West 3.4 mph 6 mph 98 % 0 in
09:04 42.3 °F 41.7 °F 30 in NW 3.1 mph 6.3 mph 98 % 0 in
09:09 42.6 °F 42.1 °F 30 in West 3.1 mph 7.8 mph 98 % 0 in
09:14 43.3 °F 42.8 °F 30 in West 5.4 mph 8.7 mph 98 % 0 in
09:19 43.5 °F 43.2 °F 30 in WSW 5.6 mph 10.7 mph 98 % 0 in
09:24 43.9 °F 43.3 °F 30 in West 7.8 mph 10.7 mph 98 % 0 in
09:29 44.2 °F 43.9 °F 30 in WSW 7.6 mph 11 mph 98 % 0 in
09:34 45 °F 44.2 °F 30 in WSW 7.6 mph 12.5 mph 98 % 0 in
09:39 45.1 °F 44.2 °F 30 in WSW 8.7 mph 12.5 mph 97 % 0 in
09:44 45.7 °F 44.8 °F 30 in West 7.4 mph 10.5 mph 97 % 0 in
09:49 46.2 °F 45.5 °F 30 in West 8.1 mph 10.5 mph 97 % 0 in
09:54 46.8 °F 45.7 °F 30 in WSW 3.6 mph 8.7 mph 96 % 0 in
09:59 46.9 °F 45.9 °F 30 in WNW 5.4 mph 10.5 mph 96 % 0 in
10:04 47.3 °F 45.7 °F 30 in West 10.3 mph 11.2 mph 94 % 0 in
10:09 47.7 °F 45.9 °F 30 in WNW 3.6 mph 11.2 mph 93 % 0 in
10:14 47.7 °F 45.1 °F 30 in WNW 6 mph 10.3 mph 91 % 0 in
10:19 48 °F 45 °F 30 in WSW 7.4 mph 8.7 mph 89 % 0 in
10:24 48.4 °F 44.8 °F 30 in West 3.8 mph 10.1 mph 87 % 0 in
10:29 48.4 °F 44.1 °F 30 in NNW 5.6 mph 10.1 mph 85 % 0 in
10:34 49.1 °F 44.8 °F 30 in WNW 6 mph 8.9 mph 85 % 0 in
10:39 49.3 °F 44.8 °F 30 in West 5.6 mph 7.4 mph 84 % 0 in
10:44 49.3 °F 44.1 °F 30 in NNW 6.5 mph 10.3 mph 82 % 0 in
10:49 49.5 °F 43.9 °F 30 in NNW 2.9 mph 10.3 mph 81 % 0 in
10:54 49.8 °F 44.2 °F 30 in West 2.9 mph 8.7 mph 81 % 0 in
10:59 49.5 °F 43.9 °F 30 in WNW 3.1 mph 8.9 mph 81 % 0 in
11:04 49.8 °F 43.5 °F 30 in North 3.4 mph 8.9 mph 79 % 0 in
11:09 49.5 °F 43 °F 30 in NNW 6.5 mph 9.2 mph 78 % 0 in
11:14 50.4 °F 44.1 °F 30 in West 5.6 mph 9.2 mph 79 % 0 in
11:19 50.4 °F 43.7 °F 30 in Calm   8.5 mph 78 % 0 in
11:24 50.4 °F 42.6 °F 30 in West 2.5 mph 8.5 mph 75 % 0 in
11:30 50.4 °F 43.3 °F 30 in WNW 1.3 mph 6.5 mph 77 % 0 in
11:35 50.2 °F 42.3 °F 30 in North 7.6 mph 7.6 mph 74 % 0 in
11:40 50.2 °F 42.3 °F 30 in WNW 4.9 mph 7.6 mph 74 % 0 in
11:45 50.5 °F 42.4 °F 30 in NNW 4.7 mph 7.4 mph 74 % 0 in
11:50 51.3 °F 43.2 °F 30 in WSW 1.3 mph 6.5 mph 74 % 0 in
11:55 51.3 °F 42.1 °F 30 in NNW 5.4 mph 8.1 mph 71 % 0 in
12:00 51.8 °F 43 °F 30 in Calm   9.6 mph 72 % 0 in
12:05 52.2 °F 43 °F 30 in North 2.9 mph 10.7 mph 71 % 0 in
12:10 50.7 °F 40.5 °F 30 in NNW 4.9 mph 10.7 mph 68 % 0 in
12:15 50.9 °F 41.2 °F 30 in NW 2.9 mph 8.7 mph 69 % 0 in
12:20 51.8 °F 41.9 °F 30 in West 4.3 mph 7.4 mph 69 % 0 in
12:25 51.4 °F 41.5 °F 30 in West 0.9 mph 7.4 mph 69 % 0 in
12:29 52.5 °F 43.2 °F 30 in West 7.4 mph 10.5 mph 70 % 0 in
12:35 53.4 °F 43.5 °F 30 in West 7.4 mph 10.5 mph 69 % 0 in
12:40 53.2 °F 43 °F 30 in West 3.1 mph 9.4 mph 68 % 0 in
12:44 52.9 °F 41.7 °F 30 in WNW 5.8 mph 9.6 mph 66 % 0 in
12:50 51.1 °F 39.4 °F 30 in NE 7.4 mph 9.6 mph 64 % 0 in
12:55 50.4 °F 39 °F 30 in WNW 7.4 mph 9.2 mph 65 % 0 in
12:59 51.1 °F 40.5 °F 30 in West 2 mph 9.2 mph 67 % 0 in
13:04 51.1 °F 40.8 °F 30 in West 5.8 mph 10.7 mph 68 % 0 in
13:09 51.3 °F 41 °F 30 in WSW 4.9 mph 13 mph 68 % 0 in
13:14 52.5 °F 42.6 °F 30 in West 10.1 mph 13 mph 69 % 0 in
13:19 51.3 °F 40.3 °F 30 in West 6.5 mph 12.3 mph 66 % 0 in
13:24 50.9 °F 39.9 °F 30 in West 3.4 mph 11.2 mph 66 % 0 in
13:29 50.7 °F 40.1 °F 30 in West 6.3 mph 10.3 mph 67 % 0 in
13:34 52.5 °F 41.7 °F 30 in SSW 7.4 mph 10.3 mph 67 % 0 in
13:39 52.5 °F 41 °F 30 in NW 3.8 mph 8.7 mph 65 % 0 in
13:44 51.3 °F 39.6 °F 30 in SSW 4.5 mph 8.7 mph 64 % 0 in
13:49 52.2 °F 40.6 °F 30 in West 2.7 mph 8.7 mph 65 % 0 in
13:54 51.1 °F 38.8 °F 30 in Calm   8.7 mph 63 % 0 in
13:59 52.2 °F 39.6 °F 30 in Calm   8.9 mph 62 % 0 in
14:04 53.2 °F 40.6 °F 30 in West 2.9 mph 10.3 mph 62 % 0 in
14:09 54.1 °F 41.5 °F 30 in NW 5.6 mph 10.3 mph 62 % 0 in
14:14 52.3 °F 38.8 °F 30 in WNW 2.7 mph 9.8 mph 60 % 0 in
14:19 51.3 °F 38.1 °F 30 in West 3.4 mph 9.8 mph 61 % 0 in
14:24 51.1 °F 38.5 °F 30 in West 5.8 mph 7.8 mph 62 % 0 in
14:29 52 °F 39.7 °F 30 in WNW 3.6 mph 7.6 mph 63 % 0 in
14:34 51.4 °F 38.8 °F 30 in WSW 2.2 mph 7.6 mph 62 % 0 in
14:39 50.9 °F 38.7 °F 30 in NNW 1.1 mph 7.6 mph 63 % 0 in
14:40 51.1 °F 38.8 °F 30 in WNW 2.7 mph 5.8 mph 63 % 0 in
14:45 50.5 °F 38.5 °F 30 in NNW 4.3 mph 8.5 mph 63 % 0 in
14:50 50.4 °F 38.7 °F 30 in Calm   8.5 mph 64 % 0 in
14:55 50.9 °F 39.6 °F 30 in WSW 3.8 mph 5.6 mph 65 % 0 in
15:00 51.8 °F 40.5 °F 30 in West 5.4 mph 7.8 mph 65 % 0 in
15:05 52.5 °F 41.2 °F 30 in West 5.8 mph 8.5 mph 65 % 0 in
15:10 51.8 °F 39.9 °F 30 in West 6 mph 8.5 mph 64 % 0 in
15:15 50.9 °F 39 °F 30 in West 4.3 mph 9.4 mph 64 % 0 in
15:20 50.5 °F 39.6 °F 30 in West 7.6 mph 9.4 mph 66 % 0 in
15:21 50.5 °F 39.6 °F 30 in West 3.8 mph 9.4 mph 66 % 0 in
15:26 50.4 °F 39.4 °F 30.1 in WNW 3.4 mph 8.7 mph 66 % 0 in
15:31 50.2 °F 39.2 °F 30.1 in Calm   6.5 mph 66 % 0 in
15:36 50.2 °F 39.6 °F 30.1 in NW 2.5 mph 6 mph 67 % 0 in
15:41 50 °F 39.6 °F 30.1 in North 2.5 mph 6.5 mph 67 % 0 in
15:46 49.8 °F 39.7 °F 30.1 in Calm   6.5 mph 68 % 0 in
15:51 50 °F 39.7 °F 30.1 in NNW 4.7 mph 5.6 mph 68 % 0 in
15:56 50.4 °F 40.3 °F 30 in WNW 5.4 mph 7.2 mph 68 % 0 in
16:01 50.5 °F 40.3 °F 30 in NW 1.6 mph 7.2 mph 68 % 0 in
16:06 50.4 °F 39.7 °F 30 in North 6.3 mph 7.8 mph 67 % 0 in
16:11 50.2 °F 39.6 °F 30 in West 4.3 mph 7.8 mph 67 % 0 in
16:16 49.8 °F 39.4 °F 30 in Calm   6.3 mph 67 % 0 in
16:21 49.8 °F 39.4 °F 30 in WNW 4.9 mph 7.8 mph 67 % 0 in
16:26 49.6 °F 39 °F 30 in West 2 mph 7.8 mph 67 % 0 in
16:31 49.5 °F 39 °F 30 in West 4.3 mph 7.4 mph 67 % 0 in
16:36 49.3 °F 38.8 °F 30 in West 2.7 mph 7.4 mph 67 % 0 in
16:41 49.3 °F 39.2 °F 30 in Calm   4.3 mph 68 % 0 in
16:46 49.1 °F 39 °F 30 in Calm   4.9 mph 68 % 0 in
16:51 49.1 °F 39.4 °F 30 in North 1.3 mph 5.6 mph 69 % 0 in
16:56 49.3 °F 39.2 °F 30 in Calm   5.6 mph 68 % 0 in
16:58 49.3 °F 39.6 °F 30 in Calm   5.6 mph 69 % 0 in
17:03 49.3 °F 39.6 °F 30 in Calm   2.5 mph 69 % 0 in
17:08 49.3 °F 39.6 °F 30 in Calm   3.6 mph 69 % 0 in
17:13 49.5 °F 39.7 °F 30 in Calm   3.6 mph 69 % 0 in
17:18 49.8 °F 39.9 °F 30 in Calm   4.3 mph 69 % 0 in
17:23 49.8 °F 39.9 °F 30 in Calm   4.3 mph 69 % 0 in
17:28 49.5 °F 39.7 °F 30 in Calm   5.8 mph 69 % 0 in
17:33 49.1 °F 39.4 °F 30 in Calm   5.8 mph 69 % 0 in
17:38 48.9 °F 39.6 °F 30 in Calm   0.9 mph 70 % 0 in
17:43 48.7 °F 39.4 °F 30 in Calm   0.9 mph 70 % 0 in
17:48 48.6 °F 39.2 °F 30 in West 3.8 mph 4.3 mph 70 % 0 in
17:53 48.4 °F 39.4 °F 30 in Calm   4.3 mph 71 % 0 in
17:54 48.4 °F 39.4 °F 30 in Calm   4.3 mph 71 % 0 in
17:59 48 °F 39.6 °F 30 in WSW 0.9 mph 4.3 mph 72 % 0 in
18:04 48 °F 39.7 °F 30 in Calm   2.5 mph 73 % 0 in
18:09 47.8 °F 39.6 °F 30 in West 2 mph 2.5 mph 73 % 0 in
18:14 47.7 °F 39.7 °F 30 in Calm   2 mph 74 % 0 in
18:19 47.5 °F 39.9 °F 30 in Calm     75 % 0 in
18:24 47.3 °F 39.7 °F 30.1 in Calm     75 % 0 in
18:29 47.1 °F 39.6 °F 30.1 in Calm   3.4 mph 75 % 0 in
18:34 46.9 °F 39.7 °F 30.1 in Calm   3.4 mph 76 % 0 in
18:39 46.9 °F 39.7 °F 30.1 in Calm     76 % 0 in
18:44 46.8 °F 39.9 °F 30.1 in Calm     77 % 0 in
18:49 46.8 °F 39.9 °F 30.1 in Calm   3.4 mph 77 % 0 in
18:54 46.6 °F 40.1 °F 30.1 in Calm   3.4 mph 78 % 0 in
18:59 46.6 °F 39.9 °F 30.1 in Calm     78 % 0 in
19:04 46.2 °F 39.7 °F 30.1 in Calm     78 % 0 in
19:09 46 °F 39.9 °F 30.1 in Calm     79 % 0 in
19:11 46 °F 39.9 °F 30.1 in Calm     79 % 0 in
19:16 45.9 °F 39.9 °F 30.1 in Calm     80 % 0 in
19:21 45.7 °F 39.7 °F 30.1 in Calm   2.5 mph 80 % 0 in
19:26 45.7 °F 40.1 °F 30.1 in WSW 5.4 mph 7.6 mph 81 % 0 in
19:31 45.9 °F 40.6 °F 30.1 in WSW 4.3 mph 7.6 mph 82 % 0 in
19:36 45.7 °F 40.5 °F 30.1 in West 5.6 mph 6.3 mph 82 % 0 in
19:41 45.3 °F 40.3 °F 30.1 in West 4.3 mph 6.5 mph 82 % 0 in
19:46 45.1 °F 39.9 °F 30.1 in West 5.4 mph 6.5 mph 82 % 0 in
19:51 45 °F 39.7 °F 30.1 in West 4.9 mph 6.5 mph 82 % 0 in
19:56 44.4 °F 39.4 °F 30.1 in Calm   6 mph 82 % 0 in
20:01 44.2 °F 39.4 °F 30.1 in West 3.4 mph 5.6 mph 83 % 0 in
20:06 43.5 °F 38.5 °F 30.1 in WSW 3.1 mph 5.4 mph 82 % 0 in
20:11 43.3 °F 38.1 °F 30.1 in Calm   4 mph 82 % 0 in
20:16 42.8 °F 37.9 °F 30.1 in Calm   3.8 mph 83 % 0 in
20:21 42.3 °F 37.4 °F 30.1 in Calm     83 % 0 in
20:22 42.1 °F 37.2 °F 30.1 in Calm     83 % 0 in
20:27 41.7 °F 36.9 °F 30.1 in Calm     83 % 0 in
20:32 41.4 °F 36.9 °F 30.1 in Calm     84 % 0 in
20:37 40.8 °F 36.3 °F 30.1 in Calm     84 % 0 in
20:42 40.5 °F 36.3 °F 30.1 in Calm     85 % 0 in
20:47 40.3 °F 36.1 °F 30.1 in Calm     85 % 0 in
20:52 39.7 °F 35.6 °F 30.1 in Calm     85 % 0 in
20:57 39.4 °F 35.6 °F 30.1 in Calm     86 % 0 in
21:02 39.6 °F 35.8 °F 30.1 in Calm   2.5 mph 86 % 0 in
21:07 39.6 °F 36 °F 30.1 in WSW 2.2 mph 2.5 mph 87 % 0 in
21:12 39.6 °F 36 °F 30.1 in Calm   2.2 mph 87 % 0 in
21:17 39.2 °F 35.8 °F 30.1 in Calm   2.2 mph 87 % 0 in
21:22 39.2 °F 36 °F 30.1 in Calm   2.2 mph 88 % 0 in
21:27 39.2 °F 36 °F 30.1 in Calm     88 % 0 in
21:32 39 °F 35.8 °F 30.1 in Calm     88 % 0 in
21:37 38.8 °F 36 °F 30.1 in Calm     89 % 0 in
21:42 38.8 °F 36 °F 30.1 in Calm     89 % 0 in
21:47 38.8 °F 36 °F 30.1 in WSW 3.4 mph 3.6 mph 89 % 0 in
21:53 38.7 °F 35.8 °F 30.1 in WSW 2.9 mph 4 mph 89 % 0 in
21:58 38.5 °F 35.8 °F 30.1 in Calm   4 mph 90 % 0 in
22:03 38.5 °F 35.8 °F 30.1 in Calm   2.9 mph 90 % 0 in
22:08 38.1 °F 35.4 °F 30.1 in Calm     90 % 0 in
22:13 37.8 °F 35.2 °F 30.1 in Calm     90 % 0 in
22:18 37.6 °F 35.1 °F 30.1 in Calm     90 % 0 in
22:23 37.6 °F 34.9 °F 30.1 in Calm     90 % 0 in
22:28 37.2 °F 34.5 °F 30.1 in Calm     90 % 0 in
22:33 37.2 °F 34.9 °F 30.1 in Calm     91 % 0 in
22:38 37 °F 34.7 °F 30.1 in South 1.1 mph 2.2 mph 91 % 0 in
22:43 36.9 °F 34.3 °F 30.1 in Calm   2.2 mph 91 % 0 in
22:48 36.9 °F 34.3 °F 30.1 in Calm   0.9 mph 91 % 0 in
22:53 36.7 °F 34.5 °F 30.1 in South 2.5 mph 3.1 mph 92 % 0 in
22:58 36.9 °F 34.7 °F 30.1 in South 3.4 mph 3.8 mph 92 % 0 in
23:03 36.9 °F 35.1 °F 30.1 in Calm   3.8 mph 93 % 0 in
23:08 36.9 °F 34.9 °F 30.1 in SSE 2.7 mph 3.8 mph 93 % 0 in
23:13 36.7 °F 34.9 °F 30.1 in Calm   3.8 mph 93 % 0 in
23:18 36.9 °F 34.9 °F 30.1 in South 2.7 mph 3.4 mph 93 % 0 in
23:23 36.9 °F 35.4 °F 30.1 in South 2.7 mph 3.4 mph 94 % 0 in
23:28 36.9 °F 35.4 °F 30.1 in SSE 2.2 mph 3.4 mph 94 % 0 in
23:33 36.9 °F 35.4 °F 30.1 in Calm   3.4 mph 94 % 0 in
23:38 36.9 °F 35.2 °F 30.1 in SSE 2.9 mph 2.9 mph 94 % 0 in
23:43 36.9 °F 35.2 °F 30.1 in South 2.5 mph 3.8 mph 94 % 0 in
23:48 36.9 °F 35.2 °F 30.1 in Calm   5.4 mph 94 % 0 in
23:53 36.9 °F 35.4 °F 30.1 in South 3.6 mph 5.4 mph 94 % 0 in
23:58 36.9 °F 35.6 °F 30.1 in South 3.1 mph 4 mph 95 % 0 in
Le Gheer Warneton
Courtoisie de Weather Underground - 2.25 mb

Mise a jour : 16-12-17 12:09:11
Généré par Cumulus 1.9.4 (1099)